Hastings Natural History Reservation, California Weather observations

Data are for 10 minute period ending at time listed.
 Day   Time   Solar   Ave.   Ave.  Ave.  Vector  Max.   Baro.   Total    
  of    of     Rad.   Air    Rel.  Wind   Wind   Wind  Press.  Precip.   
Year   Day            Temp.  Hum.  Speed  Dir.   Gust                    
2016   (PST)  Kw/m2    F      %     mph   deg.    mph    mb.     in.     
-------------------------------------------------------------------------
 145   20:30   0.00   48.8    79    0.8   247     2.0   953.9    0.00 
 145   20:40   0.00   48.3    80    0.5   241     1.6   954.0    0.00 
 145   20:50   0.00   47.6    81    1.3    47     2.0   954.0    0.00 
 145   21:00   0.00   46.9    82    1.4    45     2.1   954.0    0.00 
 145   21:10   0.00   46.7    82    0.6    47     1.9   954.1    0.00 
 145   21:20   0.00   46.3    82    0.0    48     0.7   954.2    0.00 
 145   21:30   0.00   45.8    83    0.3    40     1.4   954.2    0.00 
 145   21:40   0.00   45.4    84    0.5    51     1.2   954.2    0.00 
 145   21:50   0.00   45.0    84    0.0     0     0.0   954.2    0.00 
 145   22:00   0.00   44.7    85    0.1    41     0.9   954.2    0.00 
 145   22:10   0.00   44.5    85    0.2    49     0.8   954.1    0.00 
 145   22:20   0.00   44.3    86    0.3    53     0.9   954.0    0.00 
 145   22:30   0.00   44.0    86    0.0     0     0.0   953.9    0.00 
 145   22:40   0.00   43.8    86    0.1   254     1.1   953.9    0.00 
 145   22:50   0.00   43.8    86    0.2    40     1.0   953.8    0.00 
 145   23:00   0.00   43.7    86    0.4   252     1.5   953.7    0.00 
 145   23:10   0.00   43.7    86    0.2   195     1.2   953.7    0.00 
 145   23:20   0.00   43.8    86    0.7   243     1.8   953.7    0.00 
 145   23:30   0.00   43.6    86    0.5    36     1.4   953.7    0.00 
 145   23:40   0.00   43.3    87    0.0    45     0.5   953.9    0.00 
 145   23:50   0.00   43.0    88    0.5    45     1.5   953.9    0.00 
 146    0:00   0.00   42.8    89    0.4    64     1.1   954.0    0.00 
 146    0:10   0.00   42.5    89    0.7    38     1.8   953.9    0.00 
 146    0:20   0.00   42.0    90    1.4    47     1.9   953.8    0.00 
 146    0:30   0.00   42.0    90    0.1    38     0.9   953.7    0.00 
 146    0:40   0.00   42.3    90    0.0     0     0.0   953.7    0.00 
 146    0:50   0.00   43.2    90    0.4    51     1.7   953.7    0.00 
 146    1:00   0.00   44.1    88    0.1    54     1.0   953.7    0.00 
 146    1:10   0.00   44.8    85    1.2    63     3.3   953.9    0.00 
 146    1:20   0.00   45.3    82    1.0    47     2.3   953.9    0.00 
 146    1:30   0.00   45.8    81    0.6    54     1.6   953.9    0.00 
 146    1:40   0.00   46.2    80    0.7    43     1.8   953.9    0.00 
 146    1:50   0.00   46.3    82    0.8   231     1.7   954.0    0.00 
 146    2:00   0.00   46.4    84    0.3    43     1.2   954.1    0.00 
 146    2:10   0.00   46.8    83    0.3   306     2.3   954.1    0.00 
 146    2:20   0.00   47.2    84    0.8   272     3.4   954.1    0.00 
 146    2:30   0.00   47.3    85    0.7     9     2.3   954.2    0.00 
 146    2:40   0.00   47.4    85    0.5   352     1.6   954.2    0.00 
 146    2:50   0.00   47.6    85    0.4   298     2.6   954.2    0.00 
 146    3:00   0.00   47.6    84    0.4   299     1.9   954.2    0.00 
 146    3:10   0.00   47.3    85    1.2   250     3.4   954.2    0.00 
 146    3:20   0.00   47.2    86    0.6   281     2.5   954.2    0.00 
 146    3:30   0.00   47.3    86    1.0   271     3.5   954.2    0.00 
 146    3:40   0.00   47.2    86    1.1   313     3.1   954.3    0.00 
 146    3:50   0.00   47.2    86    1.0   245     2.9   954.3    0.00 
 146    4:00   0.00   46.8    87    3.1   247     4.8   954.3    0.00 
 146    4:10   0.00   46.7    88    1.8   256     5.2   954.4    0.00 
 146    4:20   0.00   46.7    88    1.5   245     4.2   954.4    0.00 
 146    4:30   0.00   46.5    88    3.1   246     5.3   954.4    0.00 
 146    4:40   0.00   46.5    88    1.8   252     2.9   954.5    0.00 
 146    4:50   0.00   46.5    87    0.6   256     2.3   954.7    0.00 
 146    5:00   0.00   46.5    87    1.3   262     2.6   954.7    0.00 
 146    5:10   0.00   46.5    87    2.3   246     4.4   954.8    0.00 
 146    5:20   0.00   46.4    88    2.2   249     3.4   955.0    0.00 
 146    5:30   0.00   46.6    89    0.6   272     2.6   955.1    0.00 
 146    5:40   0.01   46.9    89    0.4   323     2.2   955.2    0.00 
 146    5:50   0.03   46.9    90    0.3   314     2.1   955.3    0.00 
 146    6:00   0.03   46.9    90    0.8   275     3.3   955.3    0.00 
 146    6:10   0.04   46.9    92    1.1   252     2.3   955.3    0.00 
 146    6:20   0.06   46.9    93    1.1   259     2.6   955.3    0.00 
 146    6:30   0.07   47.0    94    1.4   252     3.4   955.4    0.00 
 146    6:40   0.06   47.3    94    1.1   265     2.9   955.4    0.00 
 146    6:50   0.07   47.6    94    1.0   272     2.9   955.4    0.00 
 146    7:00   0.11   47.6    94    2.2   245     4.2   955.5    0.00 
 146    7:10   0.10   47.8    94    1.6   256     3.7   955.6    0.00 
 146    7:20   0.11   48.2    94    1.2   259     3.1   955.6    0.00 
 146    7:30   0.13   48.5    92    1.6   256     4.5   955.7    0.00 
 146    7:40   0.29   49.0    88    2.7   245     6.9   955.7    0.00 
 146    7:50   0.38   50.3    84    2.0   253     4.9   955.9    0.00 
 146    8:00   0.35   51.2    80    3.6   240     7.6   955.9    0.00 
 146    8:10   0.51   51.4    78    4.7   238    10.3   956.0    0.00 
 146    8:20   0.47   51.8    76    2.8   252     6.6   956.1    0.00 
 146    8:30   0.59   52.9    74    3.1   253     7.5   956.1    0.00 
 146    8:40   0.59   53.8    71    3.5   250     8.0   956.1    0.00 
 146    8:50   0.67   54.4    69    3.5   287    10.2   956.1    0.00 
 146    9:00   0.56   54.2    70    3.6   252     9.0   956.2    0.00 
 146    9:10   0.65   55.3    67    3.3   270    10.3   956.3    0.00 
 146    9:20   0.70   55.5    67    3.0   272     9.2   956.4    0.00 
 146    9:30   0.77   57.1    63    3.0   281     7.7   956.5    0.00 
 146    9:40   0.74   55.8    66    5.2   249     8.8   956.4    0.00 
 146    9:50   0.70   55.3    67    5.8   237    11.2   956.3    0.00 
 146   10:00   0.79   56.6    65    3.3   259    10.2   956.4    0.00 
 146   10:10   0.81   57.7    63    3.9   258    10.6   956.4    0.00 
 146   10:20   0.81   58.4    62    3.4   258     9.4   956.4    0.00 
 146   10:30   0.83   59.1    60    3.0   262     9.5   956.4    0.00 
 146   10:40   0.80   58.9    61    3.3   326     7.7   956.6    0.00 
 146   10:50   0.63   59.9    59    3.6   268    10.0   956.6    0.00 
 146   11:00   0.86   60.2    59    3.0   337     7.3   956.6    0.00 
 146   11:10   0.87   61.6    56    3.1   257    10.4   956.5    0.00 
 146   11:20   0.88   61.8    56    2.8   283    10.5   956.4    0.00 
 146   11:30   0.89   62.2    55    3.0   268    10.0   956.3    0.00 
 146   11:40   0.89   62.9    54    3.4   252     8.8   956.2    0.00 
 146   11:50   0.90   62.7    54    3.3   291     9.7   956.1    0.00 
 146   12:00   0.91   64.0    51    3.5   266    10.6   956.1    0.00 
 146   12:10   0.91   63.1    53    4.3   244     8.8   955.9    0.00 
 146   12:20   0.91   63.6    52    5.0   252    11.9   955.9    0.00 
 146   12:30   0.91   64.4    50    2.7   254     9.0   955.9    0.00 
 146   12:40   0.91   64.4    48    4.4   250     9.8   955.9    0.00 
 146   12:50   0.91   64.2    50    3.2   266    11.0   955.9    0.00 
 146   13:00   0.90   65.0    48    2.7   286    10.4   955.9    0.00 
 146   13:10   0.89   66.2    47    3.6   313    12.6   955.7    0.00 
 146   13:20   0.89   64.7    49    4.7   254    11.3   955.6    0.00 
 146   13:30   0.88   66.3    48    3.3   262    10.9   955.5    0.00 
 146   13:40   0.87   65.5    48    4.7   254    11.8   955.5    0.00 
 146   13:50   0.86   64.4    51    4.8   251    13.2   955.5    0.00 
 146   14:00   0.84   65.7    51    2.9   261     8.9   955.6    0.00 
 146   14:10   0.83   64.7    54    3.9   267     8.6   955.6    0.00 
 146   14:20   0.81   63.5    56    4.3   265    11.8   955.6    0.00 
 146   14:30   0.79   62.6    59    3.8   252    10.2   955.7    0.00 
 146   14:40   0.78   63.3    58    3.2   267     9.6   955.8    0.00 
 146   14:50   0.76   62.5    58    4.3   251    12.1   955.8    0.00 
 146   15:00   0.74   61.5    61    5.6   259    14.0   955.8    0.00 
 146   15:10   0.71   62.2    60    3.9   255     9.7   955.9    0.00 
 146   15:20   0.70   60.7    63    4.7   260    10.7   955.9    0.00 
 146   15:30   0.67   61.1    61    3.9   253    11.6   956.0    0.00 
 146   15:40   0.65   62.2    57    3.0   259     9.3   956.0    0.00 
 146   15:50   0.60   60.9    57    4.7   249    11.4   956.0    0.00 
 146   16:00   0.59   61.0    58    4.5   250    12.6   956.1    0.00 
 146   16:10   0.56   61.0    56    4.6   252    11.0   956.1    0.00 
 146   16:20   0.53   62.1    56    3.3   284     9.9   956.1    0.00 
 146   16:30   0.50   61.4    55    2.9   262     8.8   956.1    0.00 
 146   16:40   0.47   61.2    54    3.0   284     8.5   956.1    0.00 
 146   16:50   0.44   61.7    52    2.6   338     9.8   956.1    0.00 
 146   17:00   0.41   60.6    55    4.1   255    10.9   956.1    0.00 
 146   17:10   0.38   61.0    55    2.8   257     7.4   956.1    0.00 
 146   17:20   0.34   60.5    56    3.5   261     7.7   956.1    0.00 
 146   17:30   0.31   59.5    58    3.5   260     9.1   956.1    0.00 
 146   17:40   0.28   59.2    60    1.8   347     9.0   956.2    0.00 
 146   17:50   0.24   56.7    66    4.0   248    10.1   956.5    0.00 
 146   18:00   0.12   55.0    70    3.6   253     9.0   956.7    0.00 
 146   18:10   0.04   54.1    72    2.3   269     7.6   956.8    0.00 
 146   18:20   0.05   52.5    76    2.6   266     7.2   956.9    0.00 
 146   18:30   0.03   52.4    77    2.4   259     6.5   957.0    0.00 
 146   18:40   0.01   52.2    77    2.1   352     7.2   957.1    0.00 
 146   18:50   0.00   51.9    79    2.0   337     6.6   957.3    0.00 
 146   19:00   0.00   51.5    80    3.3   349     8.9   957.4    0.00 
 146   19:10   0.00   51.4    80    1.9   326     7.3   957.4    0.00 
 146   19:20   0.00   51.3    80    1.6   258     4.8   957.4    0.00 
 146   19:30   0.00   51.3    80    2.2   275     5.4   957.5    0.00 
 146   19:40   0.00   51.0    81    1.5   272     7.3   957.5    0.00 
 146   19:50   0.00   51.0    81    0.9   314     3.7   957.5    0.00 
 146   20:00   0.00   50.6    82    0.7   298     2.3   957.5    0.00 
 146   20:10   0.00   50.4    81    0.8   351     3.2   957.5    0.00 
 146   20:20   0.00   49.9    82    1.1   358     2.9   957.6    0.00 

Return to Hastings Natural History Reservation graphs page.


Western Regional Climate Center,wrcc@dri.edu